sensor_id;sensor_type;location;lat;lon;timestamp;temperature;humidity
22035;DHT22;11181;51.002;4.356;2023-05-21T00:01:15;19.10;99.90
22035;DHT22;11181;51.002;4.356;2023-05-21T00:03:42;19.10;99.90
22035;DHT22;11181;51.002;4.356;2023-05-21T00:06:10;19.00;99.90
22035;DHT22;11181;51.002;4.356;2023-05-21T00:08:39;19.00;99.90
22035;DHT22;11181;51.002;4.356;2023-05-21T00:11:08;18.90;99.90
22035;DHT22;11181;51.002;4.356;2023-05-21T00:13:35;18.90;99.90
22035;DHT22;11181;51.002;4.356;2023-05-21T00:16:03;18.90;99.90
22035;DHT22;11181;51.002;4.356;2023-05-21T00:18:30;18.80;99.90
22035;DHT22;11181;51.002;4.356;2023-05-21T00:20:58;18.80;99.90
22035;DHT22;11181;51.002;4.356;2023-05-21T00:23:26;18.80;99.90
22035;DHT22;11181;51.002;4.356;2023-05-21T00:25:53;18.80;99.90
22035;DHT22;11181;51.002;4.356;2023-05-21T00:28:23;18.60;99.90
22035;DHT22;11181;51.002;4.356;2023-05-21T00:30:50;18.60;99.90
22035;DHT22;11181;51.002;4.356;2023-05-21T00:33:17;18.60;99.90
22035;DHT22;11181;51.002;4.356;2023-05-21T00:35:46;18.50;99.90
22035;DHT22;11181;51.002;4.356;2023-05-21T00:38:13;18.50;99.90
22035;DHT22;11181;51.002;4.356;2023-05-21T00:40:42;18.40;99.90
22035;DHT22;11181;51.002;4.356;2023-05-21T00:43:09;18.40;99.90
22035;DHT22;11181;51.002;4.356;2023-05-21T00:45:37;18.40;99.90
22035;DHT22;11181;51.002;4.356;2023-05-21T00:48:05;18.40;99.90
22035;DHT22;11181;51.002;4.356;2023-05-21T00:50:33;18.40;99.90
22035;DHT22;11181;51.002;4.356;2023-05-21T00:53:00;18.40;99.90
22035;DHT22;11181;51.002;4.356;2023-05-21T00:55:27;18.40;99.90
22035;DHT22;11181;51.002;4.356;2023-05-21T00:57:54;18.40;99.90
22035;DHT22;11181;51.002;4.356;2023-05-21T01:00:21;18.40;99.90
22035;DHT22;11181;51.002;4.356;2023-05-21T01:02:52;18.30;99.90
22035;DHT22;11181;51.002;4.356;2023-05-21T01:05:19;18.30;99.90
22035;DHT22;11181;51.002;4.356;2023-05-21T01:07:46;18.20;99.90
22035;DHT22;11181;51.002;4.356;2023-05-21T01:10:13;18.10;99.90
22035;DHT22;11181;51.002;4.356;2023-05-21T01:12:42;18.00;99.90
22035;DHT22;11181;51.002;4.356;2023-05-21T01:15:10;18.00;99.90
22035;DHT22;11181;51.002;4.356;2023-05-21T01:17:37;17.90;99.90
22035;DHT22;11181;51.002;4.356;2023-05-21T01:20:07;18.00;99.90
22035;DHT22;11181;51.002;4.356;2023-05-21T01:22:39;18.00;99.90
22035;DHT22;11181;51.002;4.356;2023-05-21T01:25:09;17.90;99.90
22035;DHT22;11181;51.002;4.356;2023-05-21T01:27:36;17.80;99.90
22035;DHT22;11181;51.002;4.356;2023-05-21T01:30:04;17.70;99.90
22035;DHT22;11181;51.002;4.356;2023-05-21T01:32:37;17.60;99.90
22035;DHT22;11181;51.002;4.356;2023-05-21T01:35:08;17.60;99.90
22035;DHT22;11181;51.002;4.356;2023-05-21T01:37:42;17.50;99.90
22035;DHT22;11181;51.002;4.356;2023-05-21T01:40:17;17.60;99.90
22035;DHT22;11181;51.002;4.356;2023-05-21T01:42:46;17.60;99.90
22035;DHT22;11181;51.002;4.356;2023-05-21T01:45:15;17.70;99.90
22035;DHT22;11181;51.002;4.356;2023-05-21T01:47:44;17.80;99.90
22035;DHT22;11181;51.002;4.356;2023-05-21T01:50:13;17.90;99.90
22035;DHT22;11181;51.002;4.356;2023-05-21T01:52:47;17.90;99.90
22035;DHT22;11181;51.002;4.356;2023-05-21T01:55:16;17.90;99.90
22035;DHT22;11181;51.002;4.356;2023-05-21T01:57:43;17.90;99.90
22035;DHT22;11181;51.002;4.356;2023-05-21T02:00:11;17.80;99.90
22035;DHT22;11181;51.002;4.356;2023-05-21T02:02:39;17.80;99.90
22035;DHT22;11181;51.002;4.356;2023-05-21T02:05:06;17.80;99.90
22035;DHT22;11181;51.002;4.356;2023-05-21T02:07:33;17.70;99.90
22035;DHT22;11181;51.002;4.356;2023-05-21T02:10:02;17.50;99.90
22035;DHT22;11181;51.002;4.356;2023-05-21T02:12:30;17.40;99.90
22035;DHT22;11181;51.002;4.356;2023-05-21T02:14:57;17.30;99.90
22035;DHT22;11181;51.002;4.356;2023-05-21T02:17:24;17.20;99.90
22035;DHT22;11181;51.002;4.356;2023-05-21T02:19:55;17.20;99.90
22035;DHT22;11181;51.002;4.356;2023-05-21T02:22:22;17.20;99.90
22035;DHT22;11181;51.002;4.356;2023-05-21T02:24:49;17.20;99.90
22035;DHT22;11181;51.002;4.356;2023-05-21T02:27:16;17.20;99.90
22035;DHT22;11181;51.002;4.356;2023-05-21T02:29:44;17.20;99.90
22035;DHT22;11181;51.002;4.356;2023-05-21T02:32:11;17.20;99.90
22035;DHT22;11181;51.002;4.356;2023-05-21T02:34:38;17.10;99.90
22035;DHT22;11181;51.002;4.356;2023-05-21T02:37:07;17.20;99.90
22035;DHT22;11181;51.002;4.356;2023-05-21T02:39:34;17.10;99.90
22035;DHT22;11181;51.002;4.356;2023-05-21T02:42:01;17.20;99.90
22035;DHT22;11181;51.002;4.356;2023-05-21T02:44:28;17.30;99.90
22035;DHT22;11181;51.002;4.356;2023-05-21T02:46:56;17.30;99.90
22035;DHT22;11181;51.002;4.356;2023-05-21T02:49:23;17.40;99.90
22035;DHT22;11181;51.002;4.356;2023-05-21T02:51:50;17.40;99.90
22035;DHT22;11181;51.002;4.356;2023-05-21T02:54:17;17.30;99.90
22035;DHT22;11181;51.002;4.356;2023-05-21T02:56:44;17.30;99.90
22035;DHT22;11181;51.002;4.356;2023-05-21T02:59:11;17.30;99.90
22035;DHT22;11181;51.002;4.356;2023-05-21T03:01:38;17.30;99.90
22035;DHT22;11181;51.002;4.356;2023-05-21T03:04:07;17.30;99.90
22035;DHT22;11181;51.002;4.356;2023-05-21T03:06:33;17.20;99.90
22035;DHT22;11181;51.002;4.356;2023-05-21T03:09:01;17.10;99.90
22035;DHT22;11181;51.002;4.356;2023-05-21T03:11:30;17.10;99.90
22035;DHT22;11181;51.002;4.356;2023-05-21T03:13:57;17.00;99.90
22035;DHT22;11181;51.002;4.356;2023-05-21T03:16:24;16.90;99.90
22035;DHT22;11181;51.002;4.356;2023-05-21T03:18:50;17.00;99.90
22035;DHT22;11181;51.002;4.356;2023-05-21T03:21:19;17.10;99.90
22035;DHT22;11181;51.002;4.356;2023-05-21T03:23:47;17.00;99.90
22035;DHT22;11181;51.002;4.356;2023-05-21T03:26:14;16.60;99.90
22035;DHT22;11181;51.002;4.356;2023-05-21T03:28:40;16.60;99.90
22035;DHT22;11181;51.002;4.356;2023-05-21T03:31:07;16.60;99.90
22035;DHT22;11181;51.002;4.356;2023-05-21T03:33:34;16.60;99.90
22035;DHT22;11181;51.002;4.356;2023-05-21T03:36:01;16.60;99.90
22035;DHT22;11181;51.002;4.356;2023-05-21T03:38:30;16.50;99.90
22035;DHT22;11181;51.002;4.356;2023-05-21T03:40:57;16.40;99.90
22035;DHT22;11181;51.002;4.356;2023-05-21T03:43:23;16.50;99.90
22035;DHT22;11181;51.002;4.356;2023-05-21T03:45:50;16.50;99.90
22035;DHT22;11181;51.002;4.356;2023-05-21T03:48:17;16.50;99.90
22035;DHT22;11181;51.002;4.356;2023-05-21T03:50:44;16.50;99.90
22035;DHT22;11181;51.002;4.356;2023-05-21T03:53:11;16.50;99.90
22035;DHT22;11181;51.002;4.356;2023-05-21T03:55:39;16.50;99.90
22035;DHT22;11181;51.002;4.356;2023-05-21T03:58:06;16.20;99.90
22035;DHT22;11181;51.002;4.356;2023-05-21T04:00:34;16.30;99.90
22035;DHT22;11181;51.002;4.356;2023-05-21T04:03:02;16.20;99.90
22035;DHT22;11181;51.002;4.356;2023-05-21T04:05:29;16.20;99.90
22035;DHT22;11181;51.002;4.356;2023-05-21T04:07:55;16.30;99.90
22035;DHT22;11181;51.002;4.356;2023-05-21T04:10:23;16.20;99.90
22035;DHT22;11181;51.002;4.356;2023-05-21T04:12:51;16.30;99.90
22035;DHT22;11181;51.002;4.356;2023-05-21T04:15:18;16.30;99.90
22035;DHT22;11181;51.002;4.356;2023-05-21T04:17:45;16.20;99.90
22035;DHT22;11181;51.002;4.356;2023-05-21T04:20:12;16.30;99.90
22035;DHT22;11181;51.002;4.356;2023-05-21T04:22:41;16.30;99.90
22035;DHT22;11181;51.002;4.356;2023-05-21T04:25:08;16.40;99.90
22035;DHT22;11181;51.002;4.356;2023-05-21T04:27:38;16.60;99.90
22035;DHT22;11181;51.002;4.356;2023-05-21T04:30:07;16.50;99.90
22035;DHT22;11181;51.002;4.356;2023-05-21T04:32:34;16.50;99.90
22035;DHT22;11181;51.002;4.356;2023-05-21T04:35:01;16.50;99.90
22035;DHT22;11181;51.002;4.356;2023-05-21T04:37:28;16.60;99.90
22035;DHT22;11181;51.002;4.356;2023-05-21T04:39:56;16.60;99.90
22035;DHT22;11181;51.002;4.356;2023-05-21T04:42:23;16.50;99.90
22035;DHT22;11181;51.002;4.356;2023-05-21T04:44:50;16.40;99.90
22035;DHT22;11181;51.002;4.356;2023-05-21T04:47:21;16.40;99.90
22035;DHT22;11181;51.002;4.356;2023-05-21T04:49:48;16.10;99.90
22035;DHT22;11181;51.002;4.356;2023-05-21T04:52:15;16.10;99.90
22035;DHT22;11181;51.002;4.356;2023-05-21T04:54:42;16.10;99.90
22035;DHT22;11181;51.002;4.356;2023-05-21T04:57:10;16.10;99.90
22035;DHT22;11181;51.002;4.356;2023-05-21T04:59:37;16.20;99.90
22035;DHT22;11181;51.002;4.356;2023-05-21T05:02:04;16.40;99.90
22035;DHT22;11181;51.002;4.356;2023-05-21T05:04:32;16.50;99.90
22035;DHT22;11181;51.002;4.356;2023-05-21T05:06:59;16.50;99.90
22035;DHT22;11181;51.002;4.356;2023-05-21T05:09:26;16.40;99.90
22035;DHT22;11181;51.002;4.356;2023-05-21T05:11:57;16.40;99.90
22035;DHT22;11181;51.002;4.356;2023-05-21T05:14:24;16.10;99.90
22035;DHT22;11181;51.002;4.356;2023-05-21T05:16:51;16.00;99.90
22035;DHT22;11181;51.002;4.356;2023-05-21T05:19:18;16.00;99.90
22035;DHT22;11181;51.002;4.356;2023-05-21T05:21:47;16.00;99.90
22035;DHT22;11181;51.002;4.356;2023-05-21T05:24:14;16.20;99.90
22035;DHT22;11181;51.002;4.356;2023-05-21T05:26:41;16.20;99.90
22035;DHT22;11181;51.002;4.356;2023-05-21T05:29:08;16.50;99.90
22035;DHT22;11181;51.002;4.356;2023-05-21T05:31:35;16.70;99.90
22035;DHT22;11181;51.002;4.356;2023-05-21T05:34:02;16.70;99.90
22035;DHT22;11181;51.002;4.356;2023-05-21T05:36:29;16.70;99.90
22035;DHT22;11181;51.002;4.356;2023-05-21T05:38:58;16.50;99.90
22035;DHT22;11181;51.002;4.356;2023-05-21T05:41:25;16.50;99.90
22035;DHT22;11181;51.002;4.356;2023-05-21T05:43:52;16.70;99.90
22035;DHT22;11181;51.002;4.356;2023-05-21T05:46:19;16.70;99.90
22035;DHT22;11181;51.002;4.356;2023-05-21T05:48:46;16.60;99.90
22035;DHT22;11181;51.002;4.356;2023-05-21T05:51:13;16.60;99.90
22035;DHT22;11181;51.002;4.356;2023-05-21T05:53:41;16.60;99.90
22035;DHT22;11181;51.002;4.356;2023-05-21T05:56:09;16.80;99.90
22035;DHT22;11181;51.002;4.356;2023-05-21T05:58:36;16.90;99.90
22035;DHT22;11181;51.002;4.356;2023-05-21T06:01:03;17.00;99.90
22035;DHT22;11181;51.002;4.356;2023-05-21T06:03:30;17.20;99.90
22035;DHT22;11181;51.002;4.356;2023-05-21T06:05:59;17.40;99.90
22035;DHT22;11181;51.002;4.356;2023-05-21T06:08:26;17.50;99.90
22035;DHT22;11181;51.002;4.356;2023-05-21T06:10:53;17.60;99.90
22035;DHT22;11181;51.002;4.356;2023-05-21T06:13:21;17.80;99.90
22035;DHT22;11181;51.002;4.356;2023-05-21T06:15:48;18.00;99.90
22035;DHT22;11181;51.002;4.356;2023-05-21T06:18:16;18.00;99.90
22035;DHT22;11181;51.002;4.356;2023-05-21T06:20:45;18.00;99.90
22035;DHT22;11181;51.002;4.356;2023-05-21T06:23:12;18.00;99.90
22035;DHT22;11181;51.002;4.356;2023-05-21T06:25:39;18.00;99.90
22035;DHT22;11181;51.002;4.356;2023-05-21T06:28:06;18.10;99.90
22035;DHT22;11181;51.002;4.356;2023-05-21T06:30:34;18.00;99.90
22035;DHT22;11181;51.002;4.356;2023-05-21T06:33:01;18.00;99.90
22035;DHT22;11181;51.002;4.356;2023-05-21T06:35:28;17.90;99.90
22035;DHT22;11181;51.002;4.356;2023-05-21T06:37:54;17.70;99.90
22035;DHT22;11181;51.002;4.356;2023-05-21T06:40:21;17.90;99.90
22035;DHT22;11181;51.002;4.356;2023-05-21T06:42:48;18.00;99.90
22035;DHT22;11181;51.002;4.356;2023-05-21T06:45:15;18.10;99.90
22035;DHT22;11181;51.002;4.356;2023-05-21T06:47:43;18.20;99.90
22035;DHT22;11181;51.002;4.356;2023-05-21T06:50:10;17.90;99.90
22035;DHT22;11181;51.002;4.356;2023-05-21T06:52:37;17.90;99.90
22035;DHT22;11181;51.002;4.356;2023-05-21T06:55:04;18.00;99.90
22035;DHT22;11181;51.002;4.356;2023-05-21T06:57:36;18.00;99.90
22035;DHT22;11181;51.002;4.356;2023-05-21T07:00:04;18.20;99.90
22035;DHT22;11181;51.002;4.356;2023-05-21T07:02:32;18.30;99.90
22035;DHT22;11181;51.002;4.356;2023-05-21T07:05:01;18.60;99.90
22035;DHT22;11181;51.002;4.356;2023-05-21T07:07:28;18.70;99.90
22035;DHT22;11181;51.002;4.356;2023-05-21T07:09:55;18.80;99.90
22035;DHT22;11181;51.002;4.356;2023-05-21T07:12:22;19.00;99.90
22035;DHT22;11181;51.002;4.356;2023-05-21T07:14:48;19.00;99.90
22035;DHT22;11181;51.002;4.356;2023-05-21T07:17:15;18.90;99.90
22035;DHT22;11181;51.002;4.356;2023-05-21T07:19:42;18.90;99.90
22035;DHT22;11181;51.002;4.356;2023-05-21T07:22:10;19.00;99.90
22035;DHT22;11181;51.002;4.356;2023-05-21T07:24:38;19.10;99.90
22035;DHT22;11181;51.002;4.356;2023-05-21T07:27:05;19.20;99.90
22035;DHT22;11181;51.002;4.356;2023-05-21T07:29:32;19.30;99.90
22035;DHT22;11181;51.002;4.356;2023-05-21T07:31:59;19.50;99.90
22035;DHT22;11181;51.002;4.356;2023-05-21T07:34:26;19.50;99.90
22035;DHT22;11181;51.002;4.356;2023-05-21T07:36:57;19.40;99.90
22035;DHT22;11181;51.002;4.356;2023-05-21T07:39:25;19.60;99.90
22035;DHT22;11181;51.002;4.356;2023-05-21T07:41:52;19.70;99.90
22035;DHT22;11181;51.002;4.356;2023-05-21T07:44:19;19.90;99.90
22035;DHT22;11181;51.002;4.356;2023-05-21T07:46:45;20.10;99.90
22035;DHT22;11181;51.002;4.356;2023-05-21T07:49:12;20.20;99.90
22035;DHT22;11181;51.002;4.356;2023-05-21T07:51:41;20.10;99.90
22035;DHT22;11181;51.002;4.356;2023-05-21T07:54:08;20.20;99.90
22035;DHT22;11181;51.002;4.356;2023-05-21T07:56:36;20.10;99.90
22035;DHT22;11181;51.002;4.356;2023-05-21T07:59:03;20.20;99.90
22035;DHT22;11181;51.002;4.356;2023-05-21T08:01:31;20.10;99.90
22035;DHT22;11181;51.002;4.356;2023-05-21T08:03:58;20.00;99.90
22035;DHT22;11181;51.002;4.356;2023-05-21T08:06:30;19.90;99.90
22035;DHT22;11181;51.002;4.356;2023-05-21T08:08:58;20.10;99.90
22035;DHT22;11181;51.002;4.356;2023-05-21T08:11:26;20.50;99.90
22035;DHT22;11181;51.002;4.356;2023-05-21T08:13:54;20.90;99.90
22035;DHT22;11181;51.002;4.356;2023-05-21T08:16:21;21.10;99.90
22035;DHT22;11181;51.002;4.356;2023-05-21T08:18:48;21.30;99.90
22035;DHT22;11181;51.002;4.356;2023-05-21T08:21:16;21.50;99.90
22035;DHT22;11181;51.002;4.356;2023-05-21T08:23:43;21.70;99.90
22035;DHT22;11181;51.002;4.356;2023-05-21T08:26:10;21.60;99.90
22035;DHT22;11181;51.002;4.356;2023-05-21T08:28:37;21.50;99.90
22035;DHT22;11181;51.002;4.356;2023-05-21T08:31:05;21.70;99.90
22035;DHT22;11181;51.002;4.356;2023-05-21T08:33:34;21.80;99.90
22035;DHT22;11181;51.002;4.356;2023-05-21T08:36:02;21.90;99.90
22035;DHT22;11181;51.002;4.356;2023-05-21T08:38:29;22.20;99.90
22035;DHT22;11181;51.002;4.356;2023-05-21T08:40:57;22.50;99.90
22035;DHT22;11181;51.002;4.356;2023-05-21T08:43:26;22.50;99.90
22035;DHT22;11181;51.002;4.356;2023-05-21T08:45:55;22.40;99.90
22035;DHT22;11181;51.002;4.356;2023-05-21T08:48:24;22.70;99.90
22035;DHT22;11181;51.002;4.356;2023-05-21T08:50:53;22.90;99.90
22035;DHT22;11181;51.002;4.356;2023-05-21T08:53:20;22.90;99.90
22035;DHT22;11181;51.002;4.356;2023-05-21T08:55:48;22.90;99.90
22035;DHT22;11181;51.002;4.356;2023-05-21T08:58:16;23.10;99.90
22035;DHT22;11181;51.002;4.356;2023-05-21T09:00:43;23.20;99.90
22035;DHT22;11181;51.002;4.356;2023-05-21T09:03:11;23.40;99.90
22035;DHT22;11181;51.002;4.356;2023-05-21T09:05:40;23.00;99.90
22035;DHT22;11181;51.002;4.356;2023-05-21T09:08:13;22.90;99.90
22035;DHT22;11181;51.002;4.356;2023-05-21T09:10:46;23.00;99.90
22035;DHT22;11181;51.002;4.356;2023-05-21T09:13:14;23.30;99.90
22035;DHT22;11181;51.002;4.356;2023-05-21T09:15:43;23.50;99.90
22035;DHT22;11181;51.002;4.356;2023-05-21T09:18:10;23.90;99.90
22035;DHT22;11181;51.002;4.356;2023-05-21T09:20:37;24.20;99.90
22035;DHT22;11181;51.002;4.356;2023-05-21T09:23:07;24.30;99.90
22035;DHT22;11181;51.002;4.356;2023-05-21T09:25:41;24.70;99.90
22035;DHT22;11181;51.002;4.356;2023-05-21T09:28:11;25.00;99.90
22035;DHT22;11181;51.002;4.356;2023-05-21T09:30:43;25.10;99.90
22035;DHT22;11181;51.002;4.356;2023-05-21T09:33:10;24.90;99.90
22035;DHT22;11181;51.002;4.356;2023-05-21T09:35:43;24.80;99.90
22035;DHT22;11181;51.002;4.356;2023-05-21T09:38:12;25.00;99.90
22035;DHT22;11181;51.002;4.356;2023-05-21T09:40:43;25.20;99.90
22035;DHT22;11181;51.002;4.356;2023-05-21T09:43:13;25.40;99.90
22035;DHT22;11181;51.002;4.356;2023-05-21T09:45:49;25.70;99.90
22035;DHT22;11181;51.002;4.356;2023-05-21T09:48:31;25.70;99.90
22035;DHT22;11181;51.002;4.356;2023-05-21T09:51:10;25.50;99.90
22035;DHT22;11181;51.002;4.356;2023-05-21T09:53:44;25.50;99.90
22035;DHT22;11181;51.002;4.356;2023-05-21T09:56:11;25.50;99.90
22035;DHT22;11181;51.002;4.356;2023-05-21T09:58:41;25.60;99.90
22035;DHT22;11181;51.002;4.356;2023-05-21T10:01:09;25.70;99.90
22035;DHT22;11181;51.002;4.356;2023-05-21T10:03:38;25.40;99.90
22035;DHT22;11181;51.002;4.356;2023-05-21T10:06:08;25.60;99.90
22035;DHT22;11181;51.002;4.356;2023-05-21T10:08:38;25.70;99.90
22035;DHT22;11181;51.002;4.356;2023-05-21T10:11:10;26.10;99.90
22035;DHT22;11181;51.002;4.356;2023-05-21T10:13:43;26.50;99.90
22035;DHT22;11181;51.002;4.356;2023-05-21T10:16:10;26.60;99.90
22035;DHT22;11181;51.002;4.356;2023-05-21T10:18:38;26.70;99.90
22035;DHT22;11181;51.002;4.356;2023-05-21T10:21:07;26.40;99.90
22035;DHT22;11181;51.002;4.356;2023-05-21T10:23:35;26.50;99.90
22035;DHT22;11181;51.002;4.356;2023-05-21T10:26:04;26.30;99.90
22035;DHT22;11181;51.002;4.356;2023-05-21T10:28:34;26.10;99.90
22035;DHT22;11181;51.002;4.356;2023-05-21T10:31:02;26.20;99.90
22035;DHT22;11181;51.002;4.356;2023-05-21T10:33:30;26.30;99.90
22035;DHT22;11181;51.002;4.356;2023-05-21T10:35:59;26.30;99.90
22035;DHT22;11181;51.002;4.356;2023-05-21T10:38:28;26.10;99.90
22035;DHT22;11181;51.002;4.356;2023-05-21T10:40:56;26.10;99.90
22035;DHT22;11181;51.002;4.356;2023-05-21T10:44:01;26.10;99.90
22035;DHT22;11181;51.002;4.356;2023-05-21T10:46:59;26.10;99.90
22035;DHT22;11181;51.002;4.356;2023-05-21T10:49:58;26.20;99.90
22035;DHT22;11181;51.002;4.356;2023-05-21T10:52:38;26.40;99.90
22035;DHT22;11181;51.002;4.356;2023-05-21T10:55:32;26.20;99.90
22035;DHT22;11181;51.002;4.356;2023-05-21T11:01:03;25.80;99.90
22035;DHT22;11181;51.002;4.356;2023-05-21T11:03:32;25.30;99.90
22035;DHT22;11181;51.002;4.356;2023-05-21T11:06:01;25.20;99.90
22035;DHT22;11181;51.002;4.356;2023-05-21T11:08:30;24.90;99.90
22035;DHT22;11181;51.002;4.356;2023-05-21T11:11:01;24.80;99.90
22035;DHT22;11181;51.002;4.356;2023-05-21T11:13:28;24.70;99.90
22035;DHT22;11181;51.002;4.356;2023-05-21T11:16:14;24.60;99.90
22035;DHT22;11181;51.002;4.356;2023-05-21T11:19:00;24.50;99.90
22035;DHT22;11181;51.002;4.356;2023-05-21T11:21:29;24.50;99.90
22035;DHT22;11181;51.002;4.356;2023-05-21T11:23:59;24.60;99.90
22035;DHT22;11181;51.002;4.356;2023-05-21T11:29:12;24.60;99.90
22035;DHT22;11181;51.002;4.356;2023-05-21T11:31:45;24.40;99.90
22035;DHT22;11181;51.002;4.356;2023-05-21T11:34:12;24.60;99.90
22035;DHT22;11181;51.002;4.356;2023-05-21T11:36:40;24.90;99.90
22035;DHT22;11181;51.002;4.356;2023-05-21T11:39:08;25.10;99.90
22035;DHT22;11181;51.002;4.356;2023-05-21T11:41:52;24.90;99.90
22035;DHT22;11181;51.002;4.356;2023-05-21T11:44:34;24.90;99.90
22035;DHT22;11181;51.002;4.356;2023-05-21T11:47:05;25.00;99.90
22035;DHT22;11181;51.002;4.356;2023-05-21T11:49:33;24.90;99.90
22035;DHT22;11181;51.002;4.356;2023-05-21T11:52:01;25.00;99.90
22035;DHT22;11181;51.002;4.356;2023-05-21T11:54:29;25.20;99.90
22035;DHT22;11181;51.002;4.356;2023-05-21T11:56:59;25.20;99.90
22035;DHT22;11181;51.002;4.356;2023-05-21T11:59:26;25.20;99.90
22035;DHT22;11181;51.002;4.356;2023-05-21T12:01:53;25.30;99.90
22035;DHT22;11181;51.002;4.356;2023-05-21T12:04:21;25.70;99.90
22035;DHT22;11181;51.002;4.356;2023-05-21T12:06:48;25.80;99.90
22035;DHT22;11181;51.002;4.356;2023-05-21T12:09:16;26.00;99.90
22035;DHT22;11181;51.002;4.356;2023-05-21T12:11:43;26.20;99.90
22035;DHT22;11181;51.002;4.356;2023-05-21T12:14:10;25.80;99.90
22035;DHT22;11181;51.002;4.356;2023-05-21T12:16:38;25.70;99.90
22035;DHT22;11181;51.002;4.356;2023-05-21T12:19:06;25.80;99.90
22035;DHT22;11181;51.002;4.356;2023-05-21T12:21:34;25.80;99.90
22035;DHT22;11181;51.002;4.356;2023-05-21T12:24:01;25.90;99.90
22035;DHT22;11181;51.002;4.356;2023-05-21T12:26:29;26.20;99.90
22035;DHT22;11181;51.002;4.356;2023-05-21T12:28:57;26.20;99.90
22035;DHT22;11181;51.002;4.356;2023-05-21T12:31:24;26.20;99.90
22035;DHT22;11181;51.002;4.356;2023-05-21T12:33:52;26.00;99.90
22035;DHT22;11181;51.002;4.356;2023-05-21T12:36:25;25.80;99.90
22035;DHT22;11181;51.002;4.356;2023-05-21T12:38:54;25.90;99.90
22035;DHT22;11181;51.002;4.356;2023-05-21T12:41:22;26.20;99.90
22035;DHT22;11181;51.002;4.356;2023-05-21T12:43:50;26.10;99.90
22035;DHT22;11181;51.002;4.356;2023-05-21T12:46:17;26.20;99.90
22035;DHT22;11181;51.002;4.356;2023-05-21T12:48:52;26.30;99.90
22035;DHT22;11181;51.002;4.356;2023-05-21T12:51:20;26.40;99.90
22035;DHT22;11181;51.002;4.356;2023-05-21T12:53:47;26.40;99.90
22035;DHT22;11181;51.002;4.356;2023-05-21T12:56:16;26.50;99.90
22035;DHT22;11181;51.002;4.356;2023-05-21T12:58:49;26.10;99.90
22035;DHT22;11181;51.002;4.356;2023-05-21T13:01:16;26.10;99.90
22035;DHT22;11181;51.002;4.356;2023-05-21T13:03:43;26.60;99.90
22035;DHT22;11181;51.002;4.356;2023-05-21T13:06:10;26.60;99.90
22035;DHT22;11181;51.002;4.356;2023-05-21T13:08:38;26.60;99.90
22035;DHT22;11181;51.002;4.356;2023-05-21T13:11:05;26.50;99.90
22035;DHT22;11181;51.002;4.356;2023-05-21T13:13:33;26.60;99.90
22035;DHT22;11181;51.002;4.356;2023-05-21T13:16:00;26.70;99.90
22035;DHT22;11181;51.002;4.356;2023-05-21T13:18:27;26.90;99.90
22035;DHT22;11181;51.002;4.356;2023-05-21T13:20:54;27.10;99.90
22035;DHT22;11181;51.002;4.356;2023-05-21T13:23:21;27.20;99.90
22035;DHT22;11181;51.002;4.356;2023-05-21T13:25:48;27.10;99.90
22035;DHT22;11181;51.002;4.356;2023-05-21T13:28:15;27.20;99.90
22035;DHT22;11181;51.002;4.356;2023-05-21T13:30:43;27.30;99.90
22035;DHT22;11181;51.002;4.356;2023-05-21T13:33:10;27.40;99.90
22035;DHT22;11181;51.002;4.356;2023-05-21T13:35:37;27.30;99.90
22035;DHT22;11181;51.002;4.356;2023-05-21T13:38:04;27.00;99.90
22035;DHT22;11181;51.002;4.356;2023-05-21T13:40:31;26.90;99.90
22035;DHT22;11181;51.002;4.356;2023-05-21T13:42:58;26.80;99.90
22035;DHT22;11181;51.002;4.356;2023-05-21T13:45:25;26.90;99.90
22035;DHT22;11181;51.002;4.356;2023-05-21T13:47:54;27.10;99.90
22035;DHT22;11181;51.002;4.356;2023-05-21T13:50:22;26.90;99.90
22035;DHT22;11181;51.002;4.356;2023-05-21T13:52:49;26.50;99.90
22035;DHT22;11181;51.002;4.356;2023-05-21T13:55:16;26.10;99.90
22035;DHT22;11181;51.002;4.356;2023-05-21T13:57:43;26.20;99.90
22035;DHT22;11181;51.002;4.356;2023-05-21T14:00:12;25.90;99.90
22035;DHT22;11181;51.002;4.356;2023-05-21T14:02:40;25.80;99.90
22035;DHT22;11181;51.002;4.356;2023-05-21T14:05:09;25.80;99.90
22035;DHT22;11181;51.002;4.356;2023-05-21T14:07:36;25.90;99.90
22035;DHT22;11181;51.002;4.356;2023-05-21T14:10:05;26.20;99.90
22035;DHT22;11181;51.002;4.356;2023-05-21T14:12:32;25.90;99.90
22035;DHT22;11181;51.002;4.356;2023-05-21T14:14:59;25.80;99.90
22035;DHT22;11181;51.002;4.356;2023-05-21T14:17:26;25.80;99.90
22035;DHT22;11181;51.002;4.356;2023-05-21T14:19:53;25.80;99.90
22035;DHT22;11181;51.002;4.356;2023-05-21T14:22:21;25.90;99.90
22035;DHT22;11181;51.002;4.356;2023-05-21T14:24:48;26.00;99.90
22035;DHT22;11181;51.002;4.356;2023-05-21T14:27:15;26.30;99.90
22035;DHT22;11181;51.002;4.356;2023-05-21T14:29:42;26.50;99.90
22035;DHT22;11181;51.002;4.356;2023-05-21T14:32:09;26.40;99.90
22035;DHT22;11181;51.002;4.356;2023-05-21T14:34:36;26.40;99.90
22035;DHT22;11181;51.002;4.356;2023-05-21T14:37:05;26.30;99.90
22035;DHT22;11181;51.002;4.356;2023-05-21T14:39:33;26.20;99.90
22035;DHT22;11181;51.002;4.356;2023-05-21T14:42:02;26.40;99.90
22035;DHT22;11181;51.002;4.356;2023-05-21T14:44:29;26.30;99.90
22035;DHT22;11181;51.002;4.356;2023-05-21T14:46:56;26.50;99.90
22035;DHT22;11181;51.002;4.356;2023-05-21T14:49:23;26.40;99.90
22035;DHT22;11181;51.002;4.356;2023-05-21T14:51:50;26.50;99.90
22035;DHT22;11181;51.002;4.356;2023-05-21T14:54:17;26.60;99.90
22035;DHT22;11181;51.002;4.356;2023-05-21T14:56:45;26.60;99.90
22035;DHT22;11181;51.002;4.356;2023-05-21T14:59:12;26.80;99.90
22035;DHT22;11181;51.002;4.356;2023-05-21T15:01:39;26.80;99.90
22035;DHT22;11181;51.002;4.356;2023-05-21T15:04:06;26.70;99.90
22035;DHT22;11181;51.002;4.356;2023-05-21T15:06:33;26.50;99.90
22035;DHT22;11181;51.002;4.356;2023-05-21T15:09:00;26.30;99.90
22035;DHT22;11181;51.002;4.356;2023-05-21T15:11:27;25.90;99.90
22035;DHT22;11181;51.002;4.356;2023-05-21T15:13:55;25.70;99.90
22035;DHT22;11181;51.002;4.356;2023-05-21T15:16:22;25.80;99.90
22035;DHT22;11181;51.002;4.356;2023-05-21T15:18:49;26.00;99.90
22035;DHT22;11181;51.002;4.356;2023-05-21T15:21:16;26.30;99.90
22035;DHT22;11181;51.002;4.356;2023-05-21T15:23:43;26.40;99.90
22035;DHT22;11181;51.002;4.356;2023-05-21T15:26:10;26.00;99.90
22035;DHT22;11181;51.002;4.356;2023-05-21T15:28:37;25.80;99.90
22035;DHT22;11181;51.002;4.356;2023-05-21T15:31:05;25.80;99.90
22035;DHT22;11181;51.002;4.356;2023-05-21T15:33:35;25.70;99.90
22035;DHT22;11181;51.002;4.356;2023-05-21T15:36:02;25.60;99.90
22035;DHT22;11181;51.002;4.356;2023-05-21T15:38:29;25.90;99.90
22035;DHT22;11181;51.002;4.356;2023-05-21T15:40:57;26.10;99.90
22035;DHT22;11181;51.002;4.356;2023-05-21T15:43:24;26.30;99.90